Lake Mattawa, Massachusetts
Current Conditions -  °F | °C
As of 8:52 AM on Friday 24 Oct 2014 (Local Time) from KORE Reporting Station
Overcast Overcast  
Wind Chill: 41°   Ceiling: 2000
Heat Index: 46°   Visibility: 10mi
Dew Point: 42°   Wind: 10mph
Humidity: 86%   Direction: 330°NNW
Pressure: 29.75"   Gusts: NA
Location:  42.614°N, 72.3011°W
Report Text: KORE 241252Z AUTO 33009KT 10SM BKN020 BKN060 OVC090 08/06 A2975 RMK AO2 RAE43 SLP077 P0000 T00780056
Loading
Personal Weather Stations






























Interactive Weather Map
Tropical Storm Tracking
New forecast layout! Learn more

10-Day Weather Forecast

Advertisements
Track Severe Weather on mobile